createdAt,value
2023-04-20T00:02:14.855Z,100369.84
2023-04-20T00:04:50.033Z,100370.46
2023-04-20T00:07:32.448Z,100368.23
2023-04-20T00:10:37.943Z,100366.35
2023-04-20T00:13:28.587Z,100365.23
2023-04-20T00:16:24.196Z,100367.00
2023-04-20T00:19:32.698Z,100364.73
2023-04-20T00:23:00.512Z,100363.02
2023-04-20T00:26:10.358Z,100356.77
2023-04-20T00:29:15.187Z,100352.80
2023-04-20T00:32:35.693Z,100350.02
2023-04-20T00:35:41.543Z,100349.02
2023-04-20T00:38:35.022Z,100343.64
2023-04-20T00:41:24.662Z,100342.26
2023-04-20T00:43:58.873Z,100341.73
2023-04-20T00:46:42.446Z,100339.64
2023-04-20T00:49:16.026Z,100338.27
2023-04-20T00:51:57.948Z,100336.02
2023-04-20T00:55:14.315Z,100335.44
2023-04-20T00:57:58.303Z,100326.17
2023-04-20T01:00:51.760Z,100325.86
2023-04-20T01:03:51.318Z,100318.40
2023-04-20T01:06:37.758Z,100315.42
2023-04-20T01:09:12.971Z,100316.17
2023-04-20T01:11:40.416Z,100312.56
2023-04-20T01:14:18.672Z,100313.63
2023-04-20T01:17:13.118Z,100315.40
2023-04-20T01:19:53.315Z,100316.11
2023-04-20T01:22:21.477Z,100309.69
2023-04-20T01:24:53.836Z,100312.51
2023-04-20T01:27:26.036Z,100309.60
2023-04-20T01:30:02.681Z,100311.22
2023-04-20T01:32:32.966Z,100312.83
2023-04-20T01:35:40.380Z,100312.01
2023-04-20T01:38:35.822Z,100310.34
2023-04-20T01:41:04.564Z,100308.96
2023-04-20T01:43:47.906Z,100306.20
2023-04-20T01:46:39.174Z,100308.50
2023-04-20T01:49:26.664Z,100307.70
2023-04-20T01:52:06.739Z,100299.89
2023-04-20T01:54:46.289Z,100301.09
2023-04-20T01:58:13.121Z,100296.54
2023-04-20T02:01:00.888Z,100294.33
2023-04-20T02:03:36.795Z,100299.88
2023-04-20T02:06:09.589Z,100296.20
2023-04-20T02:08:41.669Z,100295.84
2023-04-20T02:11:17.186Z,100287.96
2023-04-20T02:13:50.077Z,100286.30
2023-04-20T02:16:23.060Z,100287.80
2023-04-20T02:18:50.509Z,100284.83
2023-04-20T02:21:21.952Z,100283.61
2023-04-20T02:24:05.738Z,100281.56
2023-04-20T02:26:36.247Z,100280.02
2023-04-20T02:29:25.387Z,100278.85
2023-04-20T02:32:29.707Z,100278.18
2023-04-20T02:35:31.198Z,100273.20
2023-04-20T02:38:23.974Z,100264.48
2023-04-20T02:41:01.712Z,100264.45
2023-04-20T02:44:01.589Z,100261.84
2023-04-20T02:46:46.600Z,100261.31
2023-04-20T02:49:26.092Z,100259.92
2023-04-20T02:52:05.481Z,100261.49
2023-04-20T02:55:26.924Z,100257.30
2023-04-20T02:58:51.387Z,100261.82
2023-04-20T03:01:29.663Z,100261.63
2023-04-20T03:04:19.291Z,100259.74
2023-04-20T03:07:09.547Z,100258.73
2023-04-20T03:10:04.838Z,100261.74
2023-04-20T03:13:16.505Z,100263.69
2023-04-20T03:16:10.868Z,100259.58
2023-04-20T03:18:56.884Z,100265.38
2023-04-20T03:21:37.475Z,100260.52
2023-04-20T03:24:27.746Z,100258.29
2023-04-20T03:27:19.067Z,100260.72
2023-04-20T03:30:58.223Z,100260.59
2023-04-20T03:33:33.406Z,100262.54
2023-04-20T03:36:06.133Z,100258.02
2023-04-20T03:38:39.767Z,100255.23
2023-04-20T03:41:35.642Z,100255.39
2023-04-20T03:44:17.276Z,100248.95
2023-04-20T03:46:54.192Z,100255.77
2023-04-20T03:49:27.870Z,100256.84
2023-04-20T03:51:59.982Z,100253.86
2023-04-20T03:54:37.842Z,100256.96
2023-04-20T03:57:13.994Z,100256.07
2023-04-20T04:00:27.244Z,100253.14
2023-04-20T04:03:26.030Z,100259.07
2023-04-20T04:05:56.493Z,100260.97
2023-04-20T04:08:52.370Z,100258.88
2023-04-20T04:11:25.405Z,100256.65
2023-04-20T04:14:30.499Z,100257.91
2023-04-20T04:17:41.636Z,100257.04
2023-04-20T04:20:22.860Z,100256.08
2023-04-20T04:22:56.801Z,100254.70
2023-04-20T04:25:36.983Z,100252.80
2023-04-20T04:28:20.271Z,100260.33
2023-04-20T04:31:35.889Z,100259.73
2023-04-20T04:34:14.283Z,100263.40
2023-04-20T04:37:03.378Z,100259.71
2023-04-20T04:39:53.592Z,100256.31
2023-04-20T04:42:34.469Z,100259.30
2023-04-20T04:45:04.742Z,100258.78
2023-04-20T04:47:46.470Z,100260.70
2023-04-20T04:50:19.202Z,100262.23
2023-04-20T04:53:17.407Z,100261.36
2023-04-20T04:56:39.020Z,100257.53
2023-04-20T04:59:11.616Z,100256.95
2023-04-20T05:02:47.349Z,100258.02
2023-04-20T05:05:34.802Z,100249.92
2023-04-20T05:08:07.756Z,100249.27
2023-04-20T05:10:36.098Z,100253.36
2023-04-20T05:13:06.341Z,100252.09
2023-04-20T05:15:38.933Z,100251.85
2023-04-20T05:18:08.621Z,100251.91
2023-04-20T05:20:58.927Z,100255.48
2023-04-20T05:24:07.152Z,100253.67
2023-04-20T05:27:27.513Z,100255.25
2023-04-20T05:31:15.349Z,100254.08
2023-04-20T05:34:23.657Z,100257.13
2023-04-20T05:37:27.772Z,100260.02
2023-04-20T05:40:09.713Z,100265.74
2023-04-20T05:43:03.383Z,100264.79
2023-04-20T05:45:59.972Z,100265.56
2023-04-20T05:48:47.958Z,100262.27
2023-04-20T05:51:39.702Z,100259.88
2023-04-20T05:54:22.604Z,100265.17
2023-04-20T05:56:54.673Z,100264.55
2023-04-20T05:59:24.299Z,100263.13
2023-04-20T06:02:08.836Z,100267.88
2023-04-20T06:04:42.691Z,100268.11
2023-04-20T06:07:21.673Z,100265.70
2023-04-20T06:10:32.606Z,100263.66
2023-04-20T06:13:12.971Z,100263.56
2023-04-20T06:15:52.634Z,100258.91
2023-04-20T06:18:45.842Z,100260.16
2023-04-20T06:21:16.767Z,100253.34
2023-04-20T06:23:46.358Z,100255.48
2023-04-20T06:26:46.978Z,100259.21
2023-04-20T06:29:17.323Z,100255.33
2023-04-20T06:31:48.798Z,100249.63
2023-04-20T06:34:33.203Z,100247.48
2023-04-20T06:37:13.707Z,100237.86
2023-04-20T06:39:41.323Z,100233.23
2023-04-20T06:42:15.894Z,100225.95
2023-04-20T06:44:49.816Z,100223.43
2023-04-20T06:47:51.600Z,100219.98
2023-04-20T06:50:41.434Z,100213.08
2023-04-20T06:53:11.441Z,100217.48
2023-04-20T06:55:41.010Z,100219.66
2023-04-20T06:58:14.431Z,100221.85
2023-04-20T07:01:13.440Z,100222.42
2023-04-20T07:03:46.447Z,100227.45
2023-04-20T07:06:27.579Z,100230.39
2023-04-20T07:08:57.889Z,100224.41
2023-04-20T07:11:44.505Z,100219.08
2023-04-20T07:15:07.388Z,100217.89
2023-04-20T07:18:10.308Z,100215.30
2023-04-20T07:20:56.359Z,100211.34
2023-04-20T07:23:35.024Z,100208.15
2023-04-20T07:26:07.554Z,100209.71
2023-04-20T07:28:37.310Z,100204.59
2023-04-20T07:31:08.042Z,100204.95
2023-04-20T07:33:43.758Z,100208.27
2023-04-20T07:36:16.370Z,100204.84
2023-04-20T07:38:52.122Z,100205.67
2023-04-20T07:41:30.841Z,100198.23
2023-04-20T07:44:00.745Z,100196.39
2023-04-20T07:46:33.255Z,100199.95
2023-04-20T07:49:17.585Z,100196.61
2023-04-20T07:52:16.378Z,100202.33
2023-04-20T07:55:15.113Z,100201.04
2023-04-20T07:57:50.999Z,100198.64
2023-04-20T08:00:54.808Z,100196.09
2023-04-20T08:08:25.756Z,100200.10
2023-04-20T08:12:02.541Z,100200.64
2023-04-20T08:15:41.922Z,100193.26
2023-04-20T08:19:30.012Z,100198.41
2023-04-20T08:22:29.154Z,100201.20
2023-04-20T08:25:24.270Z,100202.70
2023-04-20T08:28:44.654Z,100206.89
2023-04-20T08:31:22.043Z,100205.11
2023-04-20T08:34:21.662Z,100204.28
2023-04-20T08:37:35.526Z,100206.17
2023-04-20T08:40:19.674Z,100209.92
2023-04-20T08:43:01.094Z,100210.30
2023-04-20T08:46:02.885Z,100210.56
2023-04-20T08:48:38.026Z,100209.05
2023-04-20T08:51:19.419Z,100206.50
2023-04-20T08:53:49.324Z,100206.05
2023-04-20T08:56:19.841Z,100208.16
2023-04-20T08:58:52.481Z,100209.20
2023-04-20T09:01:36.188Z,100207.03
2023-04-20T09:04:31.853Z,100201.50
2023-04-20T09:07:09.378Z,100201.30
2023-04-20T09:09:53.647Z,100202.02
2023-04-20T09:12:46.464Z,100208.23
2023-04-20T09:15:45.625Z,100200.84
2023-04-20T09:18:24.088Z,100200.79
2023-04-20T09:21:32.622Z,100201.73
2023-04-20T09:24:49.092Z,100197.31
2023-04-20T09:27:55.507Z,100201.88
2023-04-20T09:31:01.503Z,100201.10
2023-04-20T09:33:37.300Z,100203.57
2023-04-20T09:36:49.558Z,100201.55
2023-04-20T09:39:21.340Z,100205.99
2023-04-20T09:41:53.583Z,100208.36
2023-04-20T09:44:24.157Z,100212.14
2023-04-20T09:46:57.871Z,100207.48
2023-04-20T09:49:29.938Z,100210.02
2023-04-20T09:52:20.676Z,100208.06
2023-04-20T09:54:55.085Z,100205.91
2023-04-20T09:57:55.711Z,100209.91
2023-04-20T10:01:26.131Z,100208.80
2023-04-20T10:05:13.981Z,100212.30
2023-04-20T10:09:01.894Z,100217.10
2023-04-20T10:12:26.059Z,100219.06
2023-04-20T10:15:09.611Z,100220.73
2023-04-20T10:17:46.414Z,100219.01
2023-04-20T10:20:21.968Z,100218.52
2023-04-20T10:23:09.688Z,100223.38
2023-04-20T10:26:08.987Z,100217.88
2023-04-20T10:29:03.674Z,100218.97
2023-04-20T10:31:56.538Z,100219.04
2023-04-20T10:34:37.041Z,100218.89
2023-04-20T10:37:32.432Z,100219.03
2023-04-20T10:40:26.461Z,100220.45
2023-04-20T10:43:34.792Z,100219.48
2023-04-20T10:46:38.552Z,100223.41
2023-04-20T10:49:45.924Z,100226.85
2023-04-20T10:52:42.878Z,100225.56
2023-04-20T10:55:33.673Z,100232.66
2023-04-20T10:58:30.307Z,100235.36
2023-04-20T11:01:07.676Z,100233.19
2023-04-20T11:03:42.872Z,100237.26
2023-04-20T11:06:33.237Z,100236.05
2023-04-20T11:09:55.933Z,100242.09
2023-04-20T11:12:31.325Z,100251.50
2023-04-20T11:15:07.076Z,100252.20
2023-04-20T11:17:43.830Z,100256.52
2023-04-20T11:20:12.087Z,100254.39
2023-04-20T11:22:59.457Z,100257.49
2023-04-20T11:25:33.344Z,100255.80
2023-04-20T11:28:10.138Z,100254.21
2023-04-20T11:30:41.057Z,100250.64
2023-04-20T11:33:33.320Z,100256.11
2023-04-20T11:36:06.381Z,100251.81
2023-04-20T11:38:44.048Z,100253.98
2023-04-20T11:41:21.138Z,100253.30
2023-04-20T11:43:54.156Z,100257.27
2023-04-20T11:46:29.226Z,100255.45
2023-04-20T11:49:04.481Z,100249.96
2023-04-20T11:51:43.179Z,100252.23
2023-04-20T11:54:24.680Z,100244.71
2023-04-20T11:57:20.966Z,100244.85
2023-04-20T12:00:34.861Z,100242.51
2023-04-20T12:03:18.083Z,100238.29
2023-04-20T12:06:20.215Z,100236.00
2023-04-20T12:09:27.946Z,100237.57
2023-04-20T12:12:08.063Z,100237.23
2023-04-20T12:14:41.199Z,100235.20
2023-04-20T12:18:02.665Z,100229.16
2023-04-20T12:20:44.631Z,100230.27
2023-04-20T12:23:54.560Z,100227.96
2023-04-20T12:26:38.742Z,100225.47
2023-04-20T12:29:49.280Z,100227.58
2023-04-20T12:32:22.000Z,100221.05
2023-04-20T12:35:04.710Z,100224.17
2023-04-20T12:37:37.025Z,100221.53
2023-04-20T12:40:27.357Z,100221.36
2023-04-20T12:43:18.554Z,100221.02
2023-04-20T12:45:51.446Z,100225.70
2023-04-20T12:48:53.868Z,100222.69
2023-04-20T12:51:31.654Z,100222.48
2023-04-20T12:54:17.382Z,100223.63
2023-04-20T12:56:53.257Z,100224.84
2023-04-20T12:59:48.358Z,100226.71
2023-04-20T13:02:23.710Z,100221.28
2023-04-20T13:05:22.030Z,100225.45
2023-04-20T13:08:28.251Z,100221.89
2023-04-20T13:11:16.749Z,100220.10
2023-04-20T13:14:22.004Z,100219.20
2023-04-20T13:17:05.819Z,100233.35
2023-04-20T13:19:57.636Z,100234.98
2023-04-20T13:22:54.380Z,100242.26
2023-04-20T13:26:05.040Z,100232.05
2023-04-20T13:28:47.760Z,100232.73
2023-04-20T13:31:22.782Z,100221.80
2023-04-20T13:33:58.013Z,100221.30
2023-04-20T13:36:32.799Z,100218.69
2023-04-20T13:39:06.416Z,100217.86
2023-04-20T13:41:39.021Z,100212.58
2023-04-20T13:44:08.849Z,100211.60
2023-04-20T13:46:53.001Z,100213.85
2023-04-20T13:49:30.830Z,100218.58
2023-04-20T13:52:20.881Z,100218.21
2023-04-20T13:54:50.843Z,100211.61
2023-04-20T13:57:23.013Z,100215.70
2023-04-20T13:59:52.650Z,100217.98
2023-04-20T14:02:28.872Z,100223.08
2023-04-20T14:05:21.217Z,100221.73
2023-04-20T14:08:01.011Z,100214.77
2023-04-20T14:10:51.553Z,100218.23
2023-04-20T14:13:44.724Z,100216.93
2023-04-20T14:16:22.652Z,100215.91
2023-04-20T14:19:18.259Z,100219.96
2023-04-20T14:22:13.616Z,100218.80
2023-04-20T14:24:47.340Z,100214.08
2023-04-20T14:27:19.939Z,100210.14
2023-04-20T14:30:06.598Z,100204.73
2023-04-20T14:33:14.584Z,100211.20
2023-04-20T14:36:23.360Z,100215.40
2023-04-20T14:39:04.167Z,100219.60
2023-04-20T14:42:01.397Z,100218.02
2023-04-20T14:44:56.968Z,100215.12
2023-04-20T14:47:41.038Z,100215.78
2023-04-20T14:50:24.620Z,100216.79
2023-04-20T14:53:07.529Z,100221.28
2023-04-20T14:55:38.465Z,100226.77
2023-04-20T14:59:00.150Z,100228.44
2023-04-20T15:02:51.078Z,100233.66
2023-04-20T15:06:16.636Z,100224.41
2023-04-20T15:09:54.858Z,100234.38
2023-04-20T15:12:47.299Z,100237.91
2023-04-20T15:15:48.697Z,100235.55
2023-04-20T15:18:26.920Z,100230.53
2023-04-20T15:21:30.354Z,100227.11
2023-04-20T15:24:26.412Z,100228.91
2023-04-20T15:27:19.119Z,100227.80
2023-04-20T15:30:18.267Z,100223.30
2023-04-20T15:33:08.752Z,100225.27
2023-04-20T15:35:41.221Z,100226.02
2023-04-20T15:38:15.327Z,100224.63
2023-04-20T15:40:51.045Z,100222.96
2023-04-20T15:43:27.136Z,100221.61
2023-04-20T15:46:05.565Z,100216.46
2023-04-20T15:48:44.322Z,100212.09
2023-04-20T15:51:17.410Z,100215.18
2023-04-20T15:53:50.867Z,100216.77
2023-04-20T15:56:27.896Z,100214.14
2023-04-20T15:59:11.576Z,100216.59
2023-04-20T16:02:01.674Z,100212.20
2023-04-20T16:04:59.633Z,100211.48
2023-04-20T16:07:52.731Z,100212.48
2023-04-20T16:10:44.393Z,100212.81
2023-04-20T16:13:43.467Z,100211.41
2023-04-20T16:16:10.695Z,100212.60
2023-04-20T16:19:13.151Z,100210.54
2023-04-20T16:21:55.118Z,100214.19
2023-04-20T16:24:39.212Z,100217.38
2023-04-20T16:27:18.538Z,100216.86
2023-04-20T16:30:11.879Z,100216.02
2023-04-20T16:32:59.014Z,100218.21
2023-04-20T16:36:07.891Z,100218.81
2023-04-20T16:39:01.749Z,100216.68
2023-04-20T16:41:49.210Z,100215.40
2023-04-20T16:44:26.381Z,100212.25
2023-04-20T16:47:17.245Z,100214.48
2023-04-20T16:50:28.767Z,100217.53
2023-04-20T16:53:06.752Z,100221.30
2023-04-20T16:55:50.713Z,100217.79
2023-04-20T16:58:41.136Z,100219.08
2023-04-20T17:01:32.834Z,100216.58
2023-04-20T17:04:09.448Z,100215.45
2023-04-20T17:06:59.558Z,100212.55
2023-04-20T17:10:10.376Z,100213.21
2023-04-20T17:13:28.171Z,100214.94
2023-04-20T17:16:28.748Z,100221.45
2023-04-20T17:19:44.958Z,100217.80
2023-04-20T17:22:51.256Z,100218.23
2023-04-20T17:25:29.221Z,100220.52
2023-04-20T17:28:15.992Z,100217.96
2023-04-20T17:30:54.686Z,100215.39
2023-04-20T17:33:38.399Z,100217.98
2023-04-20T17:36:19.071Z,100212.25
2023-04-20T17:39:11.003Z,100215.69
2023-04-20T17:42:04.614Z,100215.05
2023-04-20T17:44:40.273Z,100215.24
2023-04-20T17:48:00.936Z,100214.42
2023-04-20T17:51:00.876Z,100214.39
2023-04-20T17:54:01.778Z,100217.98
2023-04-20T17:56:39.040Z,100218.81
2023-04-20T17:59:38.089Z,100218.92
2023-04-20T18:02:31.921Z,100220.59
2023-04-20T18:05:35.102Z,100227.27
2023-04-20T18:08:22.380Z,100233.39
2023-04-20T18:11:18.736Z,100235.67
2023-04-20T18:14:20.634Z,100236.94
2023-04-20T18:17:13.722Z,100238.91
2023-04-20T18:20:05.108Z,100241.00
2023-04-20T18:23:09.188Z,100243.88
2023-04-20T18:26:24.392Z,100249.65
2023-04-20T18:29:29.766Z,100248.58
2023-04-20T18:32:30.199Z,100248.39
2023-04-20T18:35:34.506Z,100255.60
2023-04-20T18:38:52.716Z,100257.25
2023-04-20T18:41:28.696Z,100254.27
2023-04-20T18:44:21.292Z,100244.52
2023-04-20T18:47:18.079Z,100236.73
2023-04-20T18:50:14.677Z,100238.33
2023-04-20T18:53:15.978Z,100246.98
2023-04-20T18:55:58.716Z,100255.27
2023-04-20T18:58:49.045Z,100262.39
2023-04-20T19:01:39.595Z,100267.17
2023-04-20T19:04:32.164Z,100270.77
2023-04-20T19:07:18.114Z,100267.87
2023-04-20T19:10:06.518Z,100267.54
2023-04-20T19:12:44.442Z,100274.98
2023-04-20T19:15:52.110Z,100274.95
2023-04-20T19:18:51.460Z,100287.54
2023-04-20T19:21:33.278Z,100288.77
2023-04-20T19:24:12.380Z,100283.43
2023-04-20T19:26:48.696Z,100289.23
2023-04-20T19:29:34.649Z,100288.66
2023-04-20T19:32:13.219Z,100289.13
2023-04-20T19:35:18.135Z,100287.23
2023-04-20T19:38:14.968Z,100288.59
2023-04-20T19:41:00.302Z,100284.52
2023-04-20T19:43:35.811Z,100286.71
2023-04-20T19:46:25.346Z,100290.95
2023-04-20T19:50:02.210Z,100293.06
2023-04-20T19:52:41.714Z,100292.28
2023-04-20T19:55:11.820Z,100285.20
2023-04-20T19:57:46.353Z,100273.45
2023-04-20T20:00:55.869Z,100280.52
2023-04-20T20:03:26.639Z,100269.60
2023-04-20T20:05:56.931Z,100271.11
2023-04-20T20:08:26.474Z,100281.17
2023-04-20T20:10:56.439Z,100282.32
2023-04-20T20:13:30.784Z,100289.27
2023-04-20T20:16:16.381Z,100295.92
2023-04-20T20:19:09.244Z,100291.63
2023-04-20T20:22:19.137Z,100289.52
2023-04-20T20:25:41.017Z,100280.75
2023-04-20T20:28:51.412Z,100282.96
2023-04-20T20:31:54.621Z,100282.55
2023-04-20T20:34:55.087Z,100283.25
2023-04-20T20:37:35.001Z,100284.23
2023-04-20T20:40:13.751Z,100281.73
2023-04-20T20:42:47.319Z,100282.13
2023-04-20T20:45:19.360Z,100282.87
2023-04-20T20:48:14.020Z,100279.33
2023-04-20T20:51:03.063Z,100279.02
2023-04-20T20:54:10.978Z,100273.96
2023-04-20T20:56:49.566Z,100266.56
2023-04-20T20:59:49.185Z,100265.16
2023-04-20T21:02:52.370Z,100262.80
2023-04-20T21:05:52.098Z,100259.34
2023-04-20T21:08:25.533Z,100266.02
2023-04-20T21:11:11.675Z,100265.17
2023-04-20T21:13:55.895Z,100264.29
2023-04-20T21:16:27.949Z,100261.79
2023-04-20T21:19:26.904Z,100259.33
2023-04-20T21:22:21.763Z,100261.41
2023-04-20T21:24:51.552Z,100257.91
2023-04-20T21:27:54.997Z,100253.77
2023-04-20T21:31:56.696Z,100253.66
2023-04-20T21:34:54.247Z,100247.33
2023-04-20T21:38:34.410Z,100247.58
2023-04-20T21:42:10.861Z,100237.20
2023-04-20T21:46:06.638Z,100232.18
2023-04-20T21:49:14.040Z,100233.38
2023-04-20T21:52:53.736Z,100230.71
2023-04-20T21:56:14.417Z,100237.43
2023-04-20T21:59:33.430Z,100231.93
2023-04-20T22:02:50.039Z,100228.12
2023-04-20T22:06:27.381Z,100221.80
2023-04-20T22:10:05.564Z,100217.75
2023-04-20T22:13:53.123Z,100220.50
2023-04-20T22:17:40.308Z,100217.73
2023-04-20T22:21:08.860Z,100216.70
2023-04-20T22:24:38.894Z,100212.40
2023-04-20T22:27:49.026Z,100203.92
2023-04-20T22:31:28.956Z,100201.34
2023-04-20T22:34:52.470Z,100198.17
2023-04-20T22:38:23.429Z,100191.20
2023-04-20T22:42:01.443Z,100188.23
2023-04-20T22:45:55.303Z,100190.67
2023-04-20T22:49:43.109Z,100186.05
2023-04-20T22:53:31.743Z,100182.45
2023-04-20T22:56:46.808Z,100177.05
2023-04-20T23:00:34.654Z,100173.47
2023-04-20T23:04:29.362Z,100172.08
2023-04-20T23:07:58.096Z,100165.77
2023-04-20T23:11:08.030Z,100163.86
2023-04-20T23:14:22.814Z,100161.55
2023-04-20T23:17:06.091Z,100163.60
2023-04-20T23:20:23.727Z,100167.23
2023-04-20T23:23:34.533Z,100163.58
2023-04-20T23:26:27.029Z,100164.89
2023-04-20T23:29:33.154Z,100165.98
2023-04-20T23:32:36.335Z,100168.82
2023-04-20T23:35:27.448Z,100174.50
2023-04-20T23:38:08.862Z,100175.58
2023-04-20T23:41:46.591Z,100181.68
2023-04-20T23:45:35.455Z,100182.63
2023-04-20T23:49:25.451Z,100182.89
2023-04-20T23:53:13.255Z,100185.60
2023-04-20T23:57:02.369Z,100186.05
